Time;durP1;ratioP1;P1;durP2;ratioP2;P2;SDS_P1;SDS_P2;PMS_P1;PMS_P2;Temp;Humidity;BMP_temperature;BMP_pressure;BME280_temperature;BME280_humidity;BME280_pressure;Samples;Min_cycle;Max_cycle;Signal;HPM_P1;HPM_P2
2024/02/25 00:01:33;;;;;;;12.90;10.90;;;;;;;;;;10426728;27;20070;-63
2024/02/25 00:06:31;;;;;;;15.63;10.63;;;;;;;;;;10424718;27;20081;-63
2024/02/25 00:11:32;;;;;;;7.20;5.32;;;;;;;;;;10425096;27;20086;-63
2024/02/25 00:16:31;;;;;;;5.38;4.53;;;;;;;;;;10425217;27;20079;-63
2024/02/25 00:21:29;;;;;;;4.82;4.18;;;;;;;;;;10426552;27;20083;-62
2024/02/25 00:26:28;;;;;;;5.65;3.80;;;;;;;;;;10425003;27;20070;-63
2024/02/25 00:31:27;;;;;;;4.55;3.40;;;;;;;;;;10420764;27;20071;-64
2024/02/25 00:36:26;;;;;;;5.57;3.00;;;;;;;;;;10425875;27;20070;-63
2024/02/25 00:41:24;;;;;;;3.70;3.00;;;;;;;;;;10420752;27;20073;-63
2024/02/25 00:46:22;;;;;;;5.75;3.45;;;;;;;;;;10417048;27;20085;-63
2024/02/25 00:51:22;;;;;;;3.72;3.20;;;;;;;;;;10419265;27;20086;-63
2024/02/25 00:56:20;;;;;;;6.53;4.50;;;;;;;;;;10418573;27;20545;-63
2024/02/25 01:01:19;;;;;;;6.50;3.90;;;;;;;;;;10401898;27;20078;-64
2024/02/25 01:06:17;;;;;;;4.30;3.20;;;;;;;;;;10418496;27;20074;-64
2024/02/25 01:11:16;;;;;;;4.13;3.70;;;;;;;;;;10416380;27;20078;-64
2024/02/25 01:16:15;;;;;;;8.23;4.75;;;;;;;;;;10400412;27;20067;-63
2024/02/25 01:21:13;;;;;;;6.05;4.00;;;;;;;;;;10416522;27;20074;-63
2024/02/25 01:26:11;;;;;;;5.28;3.80;;;;;;;;;;10414463;27;20083;-63
2024/02/25 01:31:11;;;;;;;5.38;3.97;;;;;;;;;;10399855;27;20075;-63
2024/02/25 01:36:09;;;;;;;8.48;3.88;;;;;;;;;;10409787;27;20071;-63
2024/02/25 01:41:08;;;;;;;4.38;3.72;;;;;;;;;;10416032;27;20082;-63
2024/02/25 01:46:06;;;;;;;6.22;3.97;;;;;;;;;;10418353;27;20082;-64
2024/02/25 01:51:06;;;;;;;5.53;4.38;;;;;;;;;;10414462;27;20071;-63
2024/02/25 01:56:05;;;;;;;15.02;5.05;;;;;;;;;;10416154;27;20063;-64
2024/02/25 02:01:04;;;;;;;5.10;3.58;;;;;;;;;;10417714;27;20067;-64
2024/02/25 02:06:02;;;;;;;4.18;3.13;;;;;;;;;;10417632;27;20079;-63
2024/02/25 02:11:15;;;;;;;4.32;3.65;;;;;;;;;;10417818;27;20067;-63
2024/02/25 02:16:15;;;;;;;5.03;4.55;;;;;;;;;;10410947;27;20074;-63
2024/02/25 02:21:17;;;;;;;3.95;3.55;;;;;;;;;;10412037;27;20075;-64
2024/02/25 02:26:15;;;;;;;5.55;3.30;;;;;;;;;;10414802;27;20142;-64
2024/02/25 02:31:13;;;;;;;6.95;3.78;;;;;;;;;;10415772;27;20071;-63
2024/02/25 02:36:11;;;;;;;6.32;3.65;;;;;;;;;;10414832;27;20279;-63
2024/02/25 02:41:11;;;;;;;4.57;3.65;;;;;;;;;;10415729;27;20063;-64
2024/02/25 02:46:11;;;;;;;7.47;3.63;;;;;;;;;;10410905;27;20081;-64
2024/02/25 02:51:09;;;;;;;5.53;5.03;;;;;;;;;;10413191;27;20069;-64
2024/02/25 02:56:07;;;;;;;4.97;3.85;;;;;;;;;;10413416;27;20071;-64
2024/02/25 03:01:07;;;;;;;4.07;3.67;;;;;;;;;;10413482;27;20071;-63
2024/02/25 03:06:05;;;;;;;6.72;4.28;;;;;;;;;;10409406;27;20058;-63
2024/02/25 03:11:04;;;;;;;5.00;3.03;;;;;;;;;;10415575;27;20433;-64
2024/02/25 03:16:02;;;;;;;3.95;3.55;;;;;;;;;;10414200;27;20727;-64
2024/02/25 03:21:02;;;;;;;6.45;3.15;;;;;;;;;;10413441;27;20083;-64
2024/02/25 03:26:00;;;;;;;4.22;3.20;;;;;;;;;;10414072;28;20089;-64
2024/02/25 03:30:58;;;;;;;4.57;3.50;;;;;;;;;;10411805;28;20082;-64
2024/02/25 03:35:57;;;;;;;8.70;3.58;;;;;;;;;;10409021;28;20075;-63
2024/02/25 03:40:57;;;;;;;8.85;4.85;;;;;;;;;;10411775;28;20505;-63
2024/02/25 03:45:55;;;;;;;5.03;3.40;;;;;;;;;;10393593;28;20085;-63
2024/02/25 03:50:53;;;;;;;5.28;3.80;;;;;;;;;;10408416;28;20097;-64
2024/02/25 03:55:51;;;;;;;3.83;3.42;;;;;;;;;;10409218;28;20071;-64
2024/02/25 04:00:51;;;;;;;4.40;3.78;;;;;;;;;;10411984;28;20108;-63
2024/02/25 04:05:49;;;;;;;3.80;3.40;;;;;;;;;;10393166;28;20489;-63
2024/02/25 04:10:48;;;;;;;6.20;3.47;;;;;;;;;;10411610;28;20070;-64
2024/02/25 04:15:46;;;;;;;5.28;3.53;;;;;;;;;;10412063;27;20067;-63
2024/02/25 04:20:46;;;;;;;5.28;3.65;;;;;;;;;;10417147;27;20087;-64
2024/02/25 04:25:44;;;;;;;7.30;3.05;;;;;;;;;;10421036;27;20079;-63
2024/02/25 04:30:42;;;;;;;6.78;3.50;;;;;;;;;;10418114;27;20485;-63
2024/02/25 04:35:41;;;;;;;4.32;3.13;;;;;;;;;;10415507;27;20504;-63
2024/02/25 04:40:41;;;;;;;4.53;3.15;;;;;;;;;;10419690;27;20076;-64
2024/02/25 04:45:39;;;;;;;4.32;3.30;;;;;;;;;;10417718;27;20063;-63
2024/02/25 04:50:38;;;;;;;6.00;5.40;;;;;;;;;;10415799;27;20094;-63
2024/02/25 04:55:36;;;;;;;4.97;4.18;;;;;;;;;;10419168;27;20074;-63
2024/02/25 05:00:35;;;;;;;6.13;4.22;;;;;;;;;;10415455;27;20111;-64
2024/02/25 05:05:34;;;;;;;6.13;4.53;;;;;;;;;;10418267;27;20169;-65
2024/02/25 05:10:32;;;;;;;5.45;3.75;;;;;;;;;;10419036;27;20075;-64
2024/02/25 05:15:30;;;;;;;6.30;3.90;;;;;;;;;;10420010;27;20079;-62
2024/02/25 05:20:30;;;;;;;10.77;4.00;;;;;;;;;;10415859;27;20097;-63
2024/02/25 05:25:28;;;;;;;4.40;3.72;;;;;;;;;;10412559;27;20075;-63
2024/02/25 05:30:26;;;;;;;5.57;4.22;;;;;;;;;;10416091;27;20409;-63
2024/02/25 05:35:24;;;;;;;11.82;5.32;;;;;;;;;;10400003;27;20075;-63
2024/02/25 05:40:24;;;;;;;4.60;4.10;;;;;;;;;;10417314;27;20070;-62
2024/02/25 05:45:22;;;;;;;6.07;4.35;;;;;;;;;;10416265;27;20063;-62
2024/02/25 05:50:21;;;;;;;5.13;4.50;;;;;;;;;;10416964;27;20071;-61
2024/02/25 05:55:19;;;;;;;6.03;4.20;;;;;;;;;;10415849;27;20071;-62
2024/02/25 06:00:19;;;;;;;7.38;4.07;;;;;;;;;;10396510;27;20094;-63
2024/02/25 06:05:17;;;;;;;5.40;4.47;;;;;;;;;;10397556;27;20097;-63
2024/02/25 06:10:16;;;;;;;9.18;5.32;;;;;;;;;;10412003;27;20147;-64
2024/02/25 06:15:14;;;;;;;5.72;4.88;;;;;;;;;;10415735;27;20067;-63
2024/02/25 06:20:13;;;;;;;7.90;5.32;;;;;;;;;;10413747;27;20113;-63
2024/02/25 06:25:12;;;;;;;8.60;6.22;;;;;;;;;;10415676;27;20555;-64
2024/02/25 06:30:11;;;;;;;8.85;5.10;;;;;;;;;;10411516;27;20058;-64
2024/02/25 06:35:09;;;;;;;10.60;4.85;;;;;;;;;;10411549;27;20082;-63
2024/02/25 06:40:09;;;;;;;6.97;5.55;;;;;;;;;;10412670;27;20491;-63
2024/02/25 06:45:09;;;;;;;16.40;13.07;;;;;;;;;;10409738;27;20060;-64
2024/02/25 06:50:08;;;;;;;39.72;30.23;;;;;;;;;;10405002;27;20059;-63
2024/02/25 06:55:09;;;;;;;23.35;19.05;;;;;;;;;;10405347;27;20074;-64
2024/02/25 07:00:08;;;;;;;13.75;11.48;;;;;;;;;;10391509;27;20075;-64
2024/02/25 07:05:08;;;;;;;10.60;9.05;;;;;;;;;;10406102;27;20074;-65
2024/02/25 07:10:07;;;;;;;7.22;6.53;;;;;;;;;;10412951;27;20074;-64
2024/02/25 07:15:07;;;;;;;8.55;6.22;;;;;;;;;;10411948;27;20071;-63
2024/02/25 07:20:06;;;;;;;7.78;6.45;;;;;;;;;;10418858;27;20090;-63
2024/02/25 07:25:04;;;;;;;12.98;9.55;;;;;;;;;;10411382;27;20112;-64
2024/02/25 07:30:03;;;;;;;12.07;8.13;;;;;;;;;;10409567;28;20591;-64
2024/02/25 07:35:02;;;;;;;17.10;15.50;;;;;;;;;;10410830;28;20074;-64
2024/02/25 07:40:01;;;;;;;14.68;11.90;;;;;;;;;;10409015;28;20705;-65
2024/02/25 07:44:59;;;;;;;11.65;10.55;;;;;;;;;;10411609;28;20087;-64
2024/02/25 07:49:57;;;;;;;14.27;11.68;;;;;;;;;;10416380;27;20067;-64
2024/02/25 07:54:57;;;;;;;15.45;12.68;;;;;;;;;;10421462;27;20102;-64
2024/02/25 07:59:55;;;;;;;30.27;22.25;;;;;;;;;;10421670;27;20075;-64
2024/02/25 08:04:53;;;;;;;27.58;23.42;;;;;;;;;;10420786;27;20070;-64
2024/02/25 08:09:51;;;;;;;19.58;17.48;;;;;;;;;;10422230;27;20070;-64
2024/02/25 08:14:54;;;;;;;13.30;11.43;;;;;;;;;;10419343;27;20062;-64
2024/02/25 08:19:52;;;;;;;13.38;11.25;;;;;;;;;;10421234;27;20101;-65
2024/02/25 08:24:50;;;;;;;13.50;12.10;;;;;;;;;;10419049;27;20063;-64
2024/02/25 08:29:49;;;;;;;17.38;13.65;;;;;;;;;;10410001;27;20082;-65
2024/02/25 08:34:53;;;;;;;16.17;10.05;;;;;;;;;;10420892;27;20079;-64
2024/02/25 08:39:51;;;;;;;14.73;9.93;;;;;;;;;;10419612;27;20467;-64
2024/02/25 08:44:50;;;;;;;12.85;11.40;;;;;;;;;;10419523;27;20066;-64
2024/02/25 08:49:50;;;;;;;14.35;10.73;;;;;;;;;;10419095;27;20425;-64
2024/02/25 08:54:48;;;;;;;16.13;10.77;;;;;;;;;;10417621;27;20519;-63
2024/02/25 08:59:47;;;;;;;11.95;10.30;;;;;;;;;;10416680;27;20075;-64
2024/02/25 09:04:45;;;;;;;13.30;9.32;;;;;;;;;;10417203;27;20063;-64
2024/02/25 09:09:45;;;;;;;16.65;11.60;;;;;;;;;;10413625;27;20073;-64
2024/02/25 09:14:43;;;;;;;12.18;10.18;;;;;;;;;;10417071;27;20063;-63
2024/02/25 09:19:45;;;;;;;13.57;9.73;;;;;;;;;;10418009;27;20083;-63
2024/02/25 09:24:45;;;;;;;37.75;16.63;;;;;;;;;;10416306;27;20504;-63
2024/02/25 09:29:43;;;;;;;21.58;14.07;;;;;;;;;;10417687;27;20092;-63
2024/02/25 09:34:42;;;;;;;14.73;12.82;;;;;;;;;;10415892;27;20075;-63
2024/02/25 09:39:41;;;;;;;15.15;10.35;;;;;;;;;;10414535;27;20075;-63
2024/02/25 09:44:41;;;;;;;13.80;11.85;;;;;;;;;;10414631;27;20093;-63
2024/02/25 09:49:40;;;;;;;16.70;12.77;;;;;;;;;;10415814;27;20055;-63
2024/02/25 09:54:38;;;;;;;31.58;22.35;;;;;;;;;;10416485;27;20086;-63
2024/02/25 09:59:37;;;;;;;29.02;22.98;;;;;;;;;;10413912;27;20083;-63
2024/02/25 10:04:36;;;;;;;25.65;22.77;;;;;;;;;;10416133;27;20121;-64
2024/02/25 10:09:35;;;;;;;25.23;22.13;;;;;;;;;;10413780;27;20074;-63
2024/02/25 10:14:34;;;;;;;21.60;15.57;;;;;;;;;;10415721;27;20504;-64
2024/02/25 10:19:33;;;;;;;19.08;15.35;;;;;;;;;;10412298;27;20106;-63
2024/02/25 10:24:32;;;;;;;17.52;11.85;;;;;;;;;;10406769;27;20559;-63
2024/02/25 10:29:31;;;;;;;18.05;11.82;;;;;;;;;;10417246;27;20136;-63
2024/02/25 10:34:30;;;;;;;16.60;11.93;;;;;;;;;;10420523;27;20067;-63
2024/02/25 10:39:29;;;;;;;21.95;12.93;;;;;;;;;;10414072;27;20087;-63
2024/02/25 10:44:28;;;;;;;10.93;7.95;;;;;;;;;;10419958;27;20059;-62
2024/02/25 10:49:27;;;;;;;12.30;9.90;;;;;;;;;;10416005;27;20067;-63
2024/02/25 10:54:26;;;;;;;16.50;10.13;;;;;;;;;;10417297;27;20098;-63
2024/02/25 10:59:24;;;;;;;10.00;8.82;;;;;;;;;;10417562;27;20071;-63
2024/02/25 11:04:24;;;;;;;11.32;8.55;;;;;;;;;;10418849;27;20062;-63
2024/02/25 11:09:23;;;;;;;11.43;8.85;;;;;;;;;;10415572;27;20068;-63
2024/02/25 11:14:27;;;;;;;30.58;22.67;;;;;;;;;;10416033;27;20559;-63
2024/02/25 11:19:29;;;;;;;12.35;10.32;;;;;;;;;;10420752;27;20105;-63
2024/02/25 11:24:43;;;;;;;13.68;11.70;;;;;;;;;;10418458;27;20081;-63
2024/02/25 11:29:43;;;;;;;14.82;12.13;;;;;;;;;;10419596;27;20554;-63
2024/02/25 11:34:43;;;;;;;10.50;7.75;;;;;;;;;;10417099;28;20075;-63
2024/02/25 11:39:41;;;;;;;10.07;7.15;;;;;;;;;;10417247;28;20078;-62
2024/02/25 11:44:40;;;;;;;12.32;9.35;;;;;;;;;;10418736;28;20461;-63
2024/02/25 11:49:38;;;;;;;9.93;8.38;;;;;;;;;;10421238;28;20555;-63
2024/02/25 11:54:38;;;;;;;8.90;7.50;;;;;;;;;;10416280;28;20071;-63
2024/02/25 11:59:37;;;;;;;11.93;10.68;;;;;;;;;;10414237;28;20074;-63
2024/02/25 12:04:36;;;;;;;15.05;12.55;;;;;;;;;;10419206;28;20078;-62
2024/02/25 12:09:35;;;;;;;12.20;9.07;;;;;;;;;;10417456;28;20068;-63
2024/02/25 12:14:38;;;;;;;15.75;9.55;;;;;;;;;;10419424;28;20075;-64
2024/02/25 12:19:36;;;;;;;13.20;10.02;;;;;;;;;;10417561;28;20082;-63
2024/02/25 12:24:37;;;;;;;13.18;9.55;;;;;;;;;;10422916;28;20071;-64
2024/02/25 12:29:39;;;;;;;12.05;8.07;;;;;;;;;;10415986;28;20492;-63
2024/02/25 12:34:37;;;;;;;10.68;6.45;;;;;;;;;;10409037;27;20089;-63
2024/02/25 12:39:39;;;;;;;8.25;6.85;;;;;;;;;;10428599;27;20075;-63
2024/02/25 12:44:39;;;;;;;7.20;6.47;;;;;;;;;;10427483;27;20078;-62
2024/02/25 12:49:37;;;;;;;8.95;7.00;;;;;;;;;;10422522;27;20493;-64
2024/02/25 12:54:36;;;;;;;10.75;8.15;;;;;;;;;;10429690;27;20074;-63
2024/02/25 12:59:34;;;;;;;7.35;6.60;;;;;;;;;;10419329;27;20079;-63
2024/02/25 13:04:36;;;;;;;8.55;6.53;;;;;;;;;;10421605;27;20137;-64
2024/02/25 13:09:35;;;;;;;8.18;6.40;;;;;;;;;;10420991;27;20074;-64
2024/02/25 13:14:34;;;;;;;9.25;7.82;;;;;;;;;;10416813;27;20083;-63
2024/02/25 13:19:34;;;;;;;9.57;6.95;;;;;;;;;;10420306;27;20099;-63
2024/02/25 13:24:32;;;;;;;11.57;8.55;;;;;;;;;;10422963;27;20074;-63
2024/02/25 13:29:31;;;;;;;13.10;9.32;;;;;;;;;;10417535;27;20489;-63
2024/02/25 13:34:39;;;;;;;12.73;11.02;;;;;;;;;;10424112;27;20075;-64
2024/02/25 13:39:40;;;;;;;11.95;9.40;;;;;;;;;;10418357;27;20516;-62
2024/02/25 13:44:39;;;;;;;12.02;9.18;;;;;;;;;;10425297;27;20094;-62
2024/02/25 13:49:38;;;;;;;15.32;13.30;;;;;;;;;;10419975;27;20067;-61
2024/02/25 13:54:36;;;;;;;22.42;16.23;;;;;;;;;;10424517;27;20075;-62
2024/02/25 13:59:36;;;;;;;18.58;12.52;;;;;;;;;;10425414;27;20527;-62
2024/02/25 14:04:38;;;;;;;13.77;9.93;;;;;;;;;;10421924;27;20079;-62
2024/02/25 14:09:36;;;;;;;12.68;10.48;;;;;;;;;;10425190;27;20089;-63
2024/02/25 14:14:36;;;;;;;16.67;11.13;;;;;;;;;;10427525;27;20063;-63
2024/02/25 14:19:35;;;;;;;15.25;13.65;;;;;;;;;;10420040;27;20071;-63
2024/02/25 14:24:33;;;;;;;24.85;20.45;;;;;;;;;;10419099;27;20168;-64
2024/02/25 14:29:31;;;;;;;17.55;14.50;;;;;;;;;;10422206;27;20069;-64
2024/02/25 14:34:31;;;;;;;15.52;13.40;;;;;;;;;;10423936;27;20086;-62
2024/02/25 14:39:30;;;;;;;21.50;16.63;;;;;;;;;;10418934;27;20075;-64
2024/02/25 14:44:42;;;;;;;17.45;12.60;;;;;;;;;;10420756;27;20058;-64
2024/02/25 14:49:41;;;;;;;16.50;14.77;;;;;;;;;;10421759;27;20071;-64
2024/02/25 14:54:40;;;;;;;13.40;11.43;;;;;;;;;;10420270;27;20067;-61
2024/02/25 14:59:38;;;;;;;12.07;10.52;;;;;;;;;;10416987;27;20067;-64
2024/02/25 15:04:36;;;;;;;14.45;11.23;;;;;;;;;;10422194;27;20083;-64
2024/02/25 15:09:36;;;;;;;13.90;11.15;;;;;;;;;;10412304;27;20526;-62
2024/02/25 15:14:34;;;;;;;33.50;25.83;;;;;;;;;;10415710;27;20460;-63
2024/02/25 15:19:33;;;;;;;55.65;44.40;;;;;;;;;;10418142;27;20306;-63
2024/02/25 15:24:31;;;;;;;79.90;55.83;;;;;;;;;;10420550;27;20077;-65
2024/02/25 15:29:30;;;;;;;23.48;19.35;;;;;;;;;;10414493;27;20074;-64
2024/02/25 15:34:29;;;;;;;22.77;19.17;;;;;;;;;;10418240;28;20075;-63
2024/02/25 15:39:28;;;;;;;22.10;19.73;;;;;;;;;;10415638;28;20539;-63
2024/02/25 15:44:26;;;;;;;26.40;22.65;;;;;;;;;;10415077;28;20070;-64
2024/02/25 15:49:27;;;;;;;40.45;30.65;;;;;;;;;;10416625;28;20090;-64
2024/02/25 15:54:27;;;;;;;34.95;28.05;;;;;;;;;;10419935;28;20070;-64
2024/02/25 15:59:25;;;;;;;31.33;26.23;;;;;;;;;;10396359;28;20210;-63
2024/02/25 16:04:24;;;;;;;36.15;28.38;;;;;;;;;;10399082;28;20102;-63
2024/02/25 16:09:24;;;;;;;30.92;27.00;;;;;;;;;;10412910;27;20078;-64
2024/02/25 16:14:23;;;;;;;31.73;26.50;;;;;;;;;;10423054;27;20082;-63
2024/02/25 16:19:21;;;;;;;27.35;24.35;;;;;;;;;;10406120;27;20079;-63
2024/02/25 16:24:20;;;;;;;32.42;26.20;;;;;;;;;;10428580;27;20109;-63
2024/02/25 16:29:19;;;;;;;27.45;24.65;;;;;;;;;;10421855;27;20523;-64
2024/02/25 16:34:19;;;;;;;29.40;24.75;;;;;;;;;;10425763;27;20055;-63
2024/02/25 16:39:20;;;;;;;29.63;24.98;;;;;;;;;;10422004;27;20078;-63
2024/02/25 16:44:20;;;;;;;29.60;25.08;;;;;;;;;;10419431;27;20067;-63
2024/02/25 16:49:18;;;;;;;27.45;24.65;;;;;;;;;;10413451;27;20070;-63
2024/02/25 16:54:17;;;;;;;30.88;26.30;;;;;;;;;;10420465;27;20074;-63
2024/02/25 16:59:16;;;;;;;29.73;26.60;;;;;;;;;;10419642;27;20485;-64
2024/02/25 17:04:16;;;;;;;26.73;23.92;;;;;;;;;;10422261;27;20078;-64
2024/02/25 17:09:14;;;;;;;26.52;21.40;;;;;;;;;;10422394;27;20085;-63
2024/02/25 17:14:15;;;;;;;26.55;22.42;;;;;;;;;;10421532;27;20063;-63
2024/02/25 17:19:17;;;;;;;28.15;22.42;;;;;;;;;;10426795;27;20067;-64
2024/02/25 17:24:18;;;;;;;25.67;22.77;;;;;;;;;;10421734;27;20078;-63
2024/02/25 17:29:16;;;;;;;27.75;22.75;;;;;;;;;;10416181;27;20550;-62
2024/02/25 17:34:17;;;;;;;25.00;20.13;;;;;;;;;;10403592;27;20480;-63
2024/02/25 17:39:16;;;;;;;24.45;20.83;;;;;;;;;;10419089;27;20437;-63
2024/02/25 17:44:16;;;;;;;23.90;19.85;;;;;;;;;;10421755;27;20089;-62
2024/02/25 17:49:14;;;;;;;27.58;22.52;;;;;;;;;;10420002;27;20062;-63
2024/02/25 17:54:14;;;;;;;29.60;23.98;;;;;;;;;;10418968;27;20075;-63
2024/02/25 17:59:13;;;;;;;31.70;23.23;;;;;;;;;;10423942;27;20059;-62
2024/02/25 18:04:11;;;;;;;25.65;22.58;;;;;;;;;;10420358;27;20073;-62
2024/02/25 18:09:10;;;;;;;23.63;21.08;;;;;;;;;;10417336;27;20104;-61
2024/02/25 18:14:10;;;;;;;27.00;20.88;;;;;;;;;;10419763;27;20065;-63
2024/02/25 18:19:09;;;;;;;24.67;22.05;;;;;;;;;;10419309;27;20081;-62
2024/02/25 18:24:07;;;;;;;27.60;21.88;;;;;;;;;;10420784;27;20128;-63
2024/02/25 18:29:05;;;;;;;28.65;21.80;;;;;;;;;;10411894;27;20075;-63
2024/02/25 18:34:06;;;;;;;22.20;19.52;;;;;;;;;;10410568;27;20106;-62
2024/02/25 18:39:09;;;;;;;22.88;19.20;;;;;;;;;;10417175;27;20163;-61
2024/02/25 18:44:08;;;;;;;20.48;17.67;;;;;;;;;;10421528;27;20075;-63
2024/02/25 18:49:07;;;;;;;26.15;20.13;;;;;;;;;;10422940;27;20458;-64
2024/02/25 18:54:06;;;;;;;25.65;20.13;;;;;;;;;;10417485;27;20885;-64
2024/02/25 18:59:04;;;;;;;24.33;19.42;;;;;;;;;;10418988;27;20075;-63
2024/02/25 19:04:03;;;;;;;21.80;18.67;;;;;;;;;;10420645;27;20508;-64
2024/02/25 19:09:02;;;;;;;20.73;18.52;;;;;;;;;;10394423;27;20635;-63
2024/02/25 19:14:15;;;;;;;23.00;18.98;;;;;;;;;;10415229;27;20070;-63
2024/02/25 19:19:16;;;;;;;24.92;22.13;;;;;;;;;;10416555;27;20051;-64
2024/02/25 19:24:16;;;;;;;22.67;19.00;;;;;;;;;;10417456;27;20172;-61
2024/02/25 19:29:14;;;;;;;19.48;16.58;;;;;;;;;;10418341;27;20066;-62
2024/02/25 19:34:13;;;;;;;19.75;17.05;;;;;;;;;;10416480;28;20090;-62
2024/02/25 19:39:11;;;;;;;22.00;17.73;;;;;;;;;;10417617;28;20413;-62
2024/02/25 19:44:11;;;;;;;21.23;18.23;;;;;;;;;;10418499;27;20074;-62
2024/02/25 19:49:10;;;;;;;19.63;16.05;;;;;;;;;;10429946;27;20070;-63
2024/02/25 19:54:08;;;;;;;22.08;16.08;;;;;;;;;;10428428;27;20586;-66
2024/02/25 19:59:16;;;;;;;18.63;16.55;;;;;;;;;;10422558;27;20473;-64
2024/02/25 20:04:17;;;;;;;19.08;15.40;;;;;;;;;;10424408;27;20085;-64
2024/02/25 20:09:15;;;;;;;20.70;16.02;;;;;;;;;;10424255;27;20073;-64
2024/02/25 20:14:14;;;;;;;17.33;13.85;;;;;;;;;;10426494;27;20074;-64
2024/02/25 20:19:12;;;;;;;17.38;11.60;;;;;;;;;;10423916;27;20086;-64
2024/02/25 20:24:12;;;;;;;13.25;11.32;;;;;;;;;;10425724;27;20067;-63
2024/02/25 20:29:10;;;;;;;10.93;9.93;;;;;;;;;;10422696;27;20104;-63
2024/02/25 20:34:09;;;;;;;14.43;11.60;;;;;;;;;;10424163;27;20074;-63
2024/02/25 20:39:08;;;;;;;13.40;10.85;;;;;;;;;;10424711;27;20075;-64
2024/02/25 20:44:08;;;;;;;9.38;8.38;;;;;;;;;;10424848;27;20099;-64
2024/02/25 20:49:06;;;;;;;7.95;7.15;;;;;;;;;;10421281;27;20078;-65
2024/02/25 20:54:05;;;;;;;8.23;7.38;;;;;;;;;;10422973;27;20321;-63
2024/02/25 20:59:03;;;;;;;7.55;6.10;;;;;;;;;;10423585;27;20082;-63
2024/02/25 21:04:04;;;;;;;8.82;6.65;;;;;;;;;;10422225;27;20125;-62
2024/02/25 21:09:03;;;;;;;9.27;5.30;;;;;;;;;;10423125;27;20467;-64
2024/02/25 21:14:01;;;;;;;5.68;5.10;;;;;;;;;;10423340;27;20176;-63
2024/02/25 21:18:59;;;;;;;6.43;5.47;;;;;;;;;;10423964;27;20075;-64
2024/02/25 21:23:59;;;;;;;6.20;5.53;;;;;;;;;;10420350;27;20079;-64
2024/02/25 21:28:58;;;;;;;5.95;4.57;;;;;;;;;;10422365;27;20078;-63
2024/02/25 21:33:56;;;;;;;5.63;4.47;;;;;;;;;;10421353;27;20074;-63
2024/02/25 21:38:55;;;;;;;8.45;5.95;;;;;;;;;;10419479;27;20071;-63
2024/02/25 21:43:56;;;;;;;5.20;4.70;;;;;;;;;;10424190;27;20531;-63
2024/02/25 21:48:54;;;;;;;7.05;4.72;;;;;;;;;;10415645;27;20090;-63
2024/02/25 21:53:53;;;;;;;6.03;5.00;;;;;;;;;;10416726;27;20071;-62
2024/02/25 21:58:53;;;;;;;7.97;4.55;;;;;;;;;;10414145;27;20101;-62
2024/02/25 22:03:53;;;;;;;5.85;4.80;;;;;;;;;;10414169;27;20066;-63
2024/02/25 22:08:52;;;;;;;8.68;5.55;;;;;;;;;;10416986;27;20059;-62
2024/02/25 22:13:50;;;;;;;4.78;4.28;;;;;;;;;;10412365;27;20056;-63
2024/02/25 22:18:48;;;;;;;5.10;4.63;;;;;;;;;;10414422;27;20073;-62
2024/02/25 22:23:48;;;;;;;9.35;4.85;;;;;;;;;;10416567;27;20473;-63
2024/02/25 22:28:46;;;;;;;7.22;5.00;;;;;;;;;;10414871;27;20093;-62
2024/02/25 22:33:45;;;;;;;7.18;5.45;;;;;;;;;;10413200;27;20071;-62
2024/02/25 22:38:43;;;;;;;6.82;4.70;;;;;;;;;;10418782;27;20064;-62
2024/02/25 22:43:43;;;;;;;6.35;4.50;;;;;;;;;;10415409;27;20071;-62
2024/02/25 22:48:41;;;;;;;5.25;4.38;;;;;;;;;;10414309;27;20090;-62
2024/02/25 22:53:40;;;;;;;5.93;4.70;;;;;;;;;;10409705;27;20074;-63
2024/02/25 22:58:41;;;;;;;6.47;4.53;;;;;;;;;;10409155;27;20079;-62
2024/02/25 23:03:43;;;;;;;5.53;4.13;;;;;;;;;;10410091;27;20567;-62
2024/02/25 23:08:42;;;;;;;20.60;15.98;;;;;;;;;;10395725;27;20090;-63
2024/02/25 23:13:40;;;;;;;14.48;11.10;;;;;;;;;;10415608;27;20067;-62
2024/02/25 23:18:38;;;;;;;11.32;7.03;;;;;;;;;;10412401;27;20071;-64
2024/02/25 23:23:38;;;;;;;6.88;5.93;;;;;;;;;;10396807;27;20078;-63
2024/02/25 23:28:36;;;;;;;5.85;5.07;;;;;;;;;;10413053;27;20065;-64
2024/02/25 23:33:35;;;;;;;7.70;4.90;;;;;;;;;;10412958;27;20069;-63
2024/02/25 23:38:35;;;;;;;7.47;4.97;;;;;;;;;;10413318;28;20079;-64
2024/02/25 23:43:35;;;;;;;7.55;6.18;;;;;;;;;;10409413;28;20082;-64
2024/02/25 23:48:33;;;;;;;4.85;4.35;;;;;;;;;;10412499;28;20496;-61
2024/02/25 23:53:31;;;;;;;4.80;4.20;;;;;;;;;;10411189;28;20481;-62
2024/02/25 23:58:30;;;;;;;5.22;4.72;;;;;;;;;;10414473;28;20071;-63
